createdAt,value
2019-02-25T00:01:45.786Z,52.10
2019-02-25T00:04:13.516Z,52.80
2019-02-25T00:06:41.312Z,52.80
2019-02-25T00:09:08.684Z,53.10
2019-02-25T00:11:36.733Z,52.70
2019-02-25T00:14:04.126Z,53.20
2019-02-25T00:16:31.977Z,53.00
2019-02-25T00:19:00.146Z,53.60
2019-02-25T00:21:27.933Z,53.30
2019-02-25T00:23:55.407Z,54.20
2019-02-25T00:26:23.083Z,54.20
2019-02-25T00:28:50.907Z,53.50
2019-02-25T00:31:18.252Z,53.10
2019-02-25T00:33:46.225Z,53.60
2019-02-25T00:36:13.709Z,52.90
2019-02-25T00:38:41.311Z,52.50
2019-02-25T00:41:08.827Z,52.40
2019-02-25T00:43:36.862Z,52.20
2019-02-25T00:46:04.231Z,52.20
2019-02-25T00:48:31.893Z,53.00
2019-02-25T00:50:59.647Z,52.30
2019-02-25T00:53:27.388Z,52.00
2019-02-25T00:55:55.041Z,52.80
2019-02-25T00:58:22.415Z,54.30
2019-02-25T01:00:50.182Z,54.90
2019-02-25T01:03:17.592Z,54.10
2019-02-25T01:05:45.252Z,53.70
2019-02-25T01:08:12.715Z,52.90
2019-02-25T01:10:40.323Z,52.30
2019-02-25T01:13:08.536Z,52.30
2019-02-25T01:15:35.901Z,52.30
2019-02-25T01:18:03.502Z,51.50
2019-02-25T01:20:31.180Z,51.90
2019-02-25T01:22:58.531Z,52.60
2019-02-25T01:25:26.031Z,52.90
2019-02-25T01:27:53.678Z,52.90
2019-02-25T01:30:21.433Z,52.60
2019-02-25T01:32:49.289Z,51.80
2019-02-25T01:35:16.740Z,52.10
2019-02-25T01:37:44.235Z,51.70
2019-02-25T01:40:11.622Z,53.10
2019-02-25T01:42:39.474Z,52.40
2019-02-25T01:45:08.551Z,52.30
2019-02-25T01:47:36.025Z,52.80
2019-02-25T01:50:04.310Z,52.80
2019-02-25T01:52:31.654Z,53.50
2019-02-25T01:54:59.024Z,54.10
2019-02-25T01:57:26.340Z,53.30
2019-02-25T01:59:53.724Z,54.20
2019-02-25T02:02:21.176Z,54.50
2019-02-25T02:04:48.671Z,54.70
2019-02-25T02:07:16.030Z,54.30
2019-02-25T02:09:43.564Z,54.60
2019-02-25T02:12:12.766Z,53.50
2019-02-25T02:14:40.457Z,54.60
2019-02-25T02:17:07.905Z,55.00
2019-02-25T02:19:35.519Z,54.90
2019-02-25T02:22:03.003Z,54.60
2019-02-25T02:24:30.597Z,54.60
2019-02-25T02:27:10.896Z,55.10
2019-02-25T02:29:38.694Z,54.90
2019-02-25T02:32:06.157Z,54.30
2019-02-25T02:34:33.668Z,54.60
2019-02-25T02:37:01.374Z,54.70
2019-02-25T02:39:28.946Z,55.10
2019-02-25T02:42:18.946Z,54.70
2019-02-25T02:44:51.888Z,55.50
2019-02-25T02:47:46.419Z,55.60
2019-02-25T02:50:17.563Z,56.20
2019-02-25T02:52:45.727Z,56.60
2019-02-25T02:55:13.109Z,56.20
2019-02-25T02:57:41.065Z,56.00
2019-02-25T03:00:12.668Z,57.20
2019-02-25T03:02:40.123Z,55.50
2019-02-25T03:05:09.678Z,55.40
2019-02-25T03:07:37.459Z,55.60
2019-02-25T03:10:05.972Z,56.00
2019-02-25T03:12:33.781Z,55.30
2019-02-25T03:15:01.585Z,56.00
2019-02-25T03:17:30.426Z,55.80
2019-02-25T03:19:57.807Z,56.50
2019-02-25T03:22:25.829Z,56.10
2019-02-25T03:24:53.392Z,56.50
2019-02-25T03:27:20.911Z,55.60
2019-02-25T03:29:48.524Z,56.60
2019-02-25T03:32:16.384Z,56.60
2019-02-25T03:34:44.176Z,56.70
2019-02-25T03:37:11.698Z,56.90
2019-02-25T03:39:39.509Z,57.50
2019-02-25T03:42:07.397Z,57.60
2019-02-25T03:44:47.819Z,58.10
2019-02-25T03:47:15.710Z,58.50
2019-02-25T03:49:43.480Z,57.70
2019-02-25T03:52:10.875Z,57.70
2019-02-25T03:54:39.663Z,58.20
2019-02-25T03:57:07.387Z,58.70
2019-02-25T03:59:35.020Z,58.00
2019-02-25T04:02:02.754Z,57.30
2019-02-25T04:04:30.216Z,57.60
2019-02-25T04:06:57.728Z,58.10
2019-02-25T04:09:25.067Z,58.70
2019-02-25T04:11:52.577Z,58.80
2019-02-25T04:14:20.347Z,57.50
2019-02-25T04:16:47.749Z,58.10
2019-02-25T04:19:15.612Z,58.60
2019-02-25T04:21:42.990Z,58.30
2019-02-25T04:24:10.823Z,57.50
2019-02-25T04:26:38.490Z,57.10
2019-02-25T04:29:06.249Z,57.10
2019-02-25T04:31:33.706Z,57.80
2019-02-25T04:34:01.195Z,56.40
2019-02-25T04:36:28.982Z,56.70
2019-02-25T04:38:56.316Z,56.80
2019-02-25T04:41:23.784Z,56.90
2019-02-25T04:43:51.239Z,57.50
2019-02-25T04:46:18.619Z,57.10
2019-02-25T04:48:46.316Z,57.10
2019-02-25T04:51:14.093Z,56.90
2019-02-25T04:53:41.658Z,57.40
2019-02-25T04:56:09.159Z,57.60
2019-02-25T04:58:36.893Z,58.00
2019-02-25T05:01:04.528Z,58.10
2019-02-25T05:03:32.232Z,57.80
2019-02-25T05:05:59.741Z,57.60
2019-02-25T05:08:27.176Z,56.90
2019-02-25T05:10:55.156Z,56.90
2019-02-25T05:13:22.819Z,58.00
2019-02-25T05:15:50.590Z,57.20
2019-02-25T05:18:18.306Z,57.60
2019-02-25T05:20:46.130Z,57.60
2019-02-25T05:23:14.189Z,57.30
2019-02-25T05:25:41.731Z,59.00
2019-02-25T05:28:09.198Z,57.70
2019-02-25T05:30:36.711Z,57.90
2019-02-25T05:33:04.160Z,58.20
2019-02-25T05:35:32.082Z,58.10
2019-02-25T05:37:59.855Z,57.70
2019-02-25T05:40:27.679Z,57.60
2019-02-25T05:42:55.601Z,57.50
2019-02-25T05:45:23.506Z,57.60
2019-02-25T05:47:51.358Z,57.90
2019-02-25T05:50:18.879Z,58.00
2019-02-25T05:52:46.642Z,57.80
2019-02-25T05:55:14.124Z,57.40
2019-02-25T05:57:41.475Z,57.70
2019-02-25T06:00:12.616Z,57.50
2019-02-25T06:02:40.262Z,57.20
2019-02-25T06:05:07.921Z,58.00
2019-02-25T06:07:35.311Z,58.50
2019-02-25T06:10:03.310Z,59.30
2019-02-25T06:12:30.824Z,58.50
2019-02-25T06:14:58.650Z,58.70
2019-02-25T06:17:26.147Z,58.50
2019-02-25T06:19:53.480Z,58.60
2019-02-25T06:22:20.969Z,58.60
2019-02-25T06:24:48.356Z,58.20
2019-02-25T06:27:15.936Z,58.30
2019-02-25T06:29:44.020Z,58.70
2019-02-25T06:32:11.428Z,58.90
2019-02-25T06:34:39.315Z,59.50
2019-02-25T06:37:07.132Z,59.60
2019-02-25T06:39:34.491Z,59.60
2019-02-25T06:42:01.921Z,59.80
2019-02-25T06:44:29.388Z,60.10
2019-02-25T06:46:56.726Z,60.10
2019-02-25T06:49:24.083Z,60.40
2019-02-25T06:51:51.466Z,60.40
2019-02-25T06:54:18.944Z,60.70
2019-02-25T06:56:46.267Z,61.30
2019-02-25T06:59:13.614Z,60.90
2019-02-25T07:01:41.079Z,60.30
2019-02-25T07:04:23.420Z,59.90
2019-02-25T07:07:10.427Z,59.30
2019-02-25T07:10:10.031Z,59.00
2019-02-25T07:13:15.548Z,60.10
2019-02-25T07:15:54.798Z,59.70
2019-02-25T07:18:40.562Z,59.60
2019-02-25T07:21:14.786Z,60.10
2019-02-25T07:23:51.409Z,59.90
2019-02-25T07:26:28.494Z,60.10
2019-02-25T07:29:27.403Z,59.60
2019-02-25T07:32:02.845Z,59.30
2019-02-25T07:34:37.401Z,57.90
2019-02-25T07:37:22.913Z,57.90
2019-02-25T07:40:21.681Z,57.50
2019-02-25T07:43:00.535Z,56.50
2019-02-25T07:45:53.751Z,56.50
2019-02-25T07:48:39.321Z,54.90
2019-02-25T07:51:26.954Z,55.10
2019-02-25T07:54:19.731Z,56.00
2019-02-25T07:56:57.872Z,54.20
2019-02-25T07:59:50.596Z,54.00
2019-02-25T08:02:36.505Z,53.60
2019-02-25T08:05:33.188Z,54.30
2019-02-25T08:08:10.390Z,52.80
2019-02-25T08:10:51.155Z,53.10
2019-02-25T08:13:30.868Z,51.70
2019-02-25T08:16:14.593Z,52.80
2019-02-25T08:18:53.973Z,53.30
2019-02-25T08:21:36.210Z,54.30
2019-02-25T08:24:13.458Z,52.20
2019-02-25T08:26:52.184Z,52.90
2019-02-25T08:29:40.129Z,50.20
2019-02-25T08:32:25.663Z,50.60
2019-02-25T08:35:11.837Z,46.20
2019-02-25T08:38:14.667Z,46.50
2019-02-25T08:41:00.454Z,46.40
2019-02-25T08:43:35.882Z,45.40
2019-02-25T08:46:26.647Z,46.40
2019-02-25T08:49:03.447Z,46.20
2019-02-25T08:51:30.827Z,46.90
2019-02-25T08:53:59.482Z,46.10
2019-02-25T08:56:26.783Z,46.50
2019-02-25T08:58:54.318Z,46.20
2019-02-25T09:01:22.209Z,44.60
2019-02-25T09:03:50.569Z,44.90
2019-02-25T09:06:17.999Z,44.50
2019-02-25T09:08:45.557Z,46.00
2019-02-25T09:11:14.366Z,45.60
2019-02-25T09:13:41.937Z,45.80
2019-02-25T09:16:09.431Z,45.90
2019-02-25T09:18:36.889Z,44.70
2019-02-25T09:21:04.349Z,46.20
2019-02-25T09:23:31.681Z,46.50
2019-02-25T09:25:59.039Z,45.80
2019-02-25T09:28:26.883Z,45.40
2019-02-25T09:30:54.678Z,45.20
2019-02-25T09:33:22.239Z,43.80
2019-02-25T09:35:50.038Z,45.30
2019-02-25T09:38:17.656Z,44.70
2019-02-25T09:40:45.323Z,44.90
2019-02-25T09:43:12.756Z,43.80
2019-02-25T09:45:40.531Z,44.40
2019-02-25T09:48:08.296Z,44.40
2019-02-25T09:50:35.748Z,44.60
2019-02-25T09:53:03.649Z,45.10
2019-02-25T09:55:31.116Z,45.20
2019-02-25T09:57:58.879Z,44.00
2019-02-25T10:00:26.603Z,45.90
2019-02-25T10:02:54.118Z,44.10
2019-02-25T10:05:21.550Z,44.50
2019-02-25T10:07:50.308Z,44.00
2019-02-25T10:10:17.675Z,44.80
2019-02-25T10:12:45.264Z,44.80
2019-02-25T10:15:13.679Z,43.40
2019-02-25T10:17:41.091Z,44.60
2019-02-25T10:20:08.595Z,43.60
2019-02-25T10:22:36.003Z,43.60
2019-02-25T10:25:03.561Z,43.50
2019-02-25T10:27:31.162Z,44.10
2019-02-25T10:29:58.543Z,44.70
2019-02-25T10:32:28.006Z,43.80
2019-02-25T10:34:55.537Z,43.50
2019-02-25T10:37:23.182Z,43.80
2019-02-25T10:39:51.498Z,43.20
2019-02-25T10:42:19.419Z,42.60
2019-02-25T10:44:47.591Z,43.30
2019-02-25T10:47:17.299Z,43.90
2019-02-25T10:49:44.590Z,43.20
2019-02-25T10:52:12.889Z,43.90
2019-02-25T10:54:41.528Z,42.50
2019-02-25T10:57:13.058Z,43.10
2019-02-25T10:59:41.489Z,43.10
2019-02-25T11:02:11.101Z,41.90
2019-02-25T11:04:39.198Z,43.60
2019-02-25T11:07:07.859Z,43.70
2019-02-25T11:09:50.394Z,42.60
2019-02-25T11:12:18.283Z,44.60
2019-02-25T11:14:46.180Z,43.20
2019-02-25T11:17:14.024Z,43.00
2019-02-25T11:19:42.948Z,41.90
2019-02-25T11:22:12.165Z,42.20
2019-02-25T11:24:40.342Z,42.10
2019-02-25T11:27:08.537Z,41.60
2019-02-25T11:29:37.871Z,41.80
2019-02-25T11:32:05.390Z,44.40
2019-02-25T11:34:33.612Z,42.30
2019-02-25T11:37:02.006Z,41.10
2019-02-25T11:39:30.146Z,41.80
2019-02-25T11:41:59.865Z,41.50
2019-02-25T11:44:31.219Z,41.20
2019-02-25T11:46:56.754Z,42.00
2019-02-25T11:49:24.118Z,42.40
2019-02-25T11:51:51.592Z,40.40
2019-02-25T11:54:19.497Z,42.10
2019-02-25T11:56:46.961Z,39.40
2019-02-25T11:59:14.421Z,39.50
2019-02-25T12:01:42.031Z,40.60
2019-02-25T12:04:09.392Z,39.90
2019-02-25T12:06:36.735Z,40.50
2019-02-25T12:09:04.940Z,38.10
2019-02-25T12:11:33.322Z,40.30
2019-02-25T12:14:00.988Z,38.90
2019-02-25T12:16:28.343Z,39.30
2019-02-25T12:18:55.850Z,40.70
2019-02-25T12:21:23.381Z,38.50
2019-02-25T12:23:50.854Z,37.10
2019-02-25T12:26:18.850Z,38.00
2019-02-25T12:28:46.301Z,41.10
2019-02-25T12:31:14.147Z,40.20
2019-02-25T12:33:42.981Z,37.40
2019-02-25T12:36:10.966Z,37.40
2019-02-25T12:38:38.801Z,38.70
2019-02-25T12:41:06.188Z,37.50
2019-02-25T12:43:33.845Z,36.60
2019-02-25T12:46:01.389Z,37.90
2019-02-25T12:48:29.142Z,37.30
2019-02-25T12:50:57.143Z,36.70
2019-02-25T12:53:24.481Z,38.00
2019-02-25T12:55:52.300Z,37.70
2019-02-25T12:58:20.463Z,37.60
2019-02-25T13:00:48.857Z,36.60
2019-02-25T13:03:16.680Z,36.60
2019-02-25T13:05:44.042Z,36.30
2019-02-25T13:08:11.796Z,36.40
2019-02-25T13:10:39.400Z,36.30
2019-02-25T13:13:07.129Z,37.10
2019-02-25T13:15:34.854Z,36.50
2019-02-25T13:18:02.302Z,36.30
2019-02-25T13:20:30.170Z,35.40
2019-02-25T13:22:57.511Z,35.70
2019-02-25T13:25:25.135Z,35.90
2019-02-25T13:27:54.385Z,35.90
2019-02-25T13:30:22.261Z,35.10
2019-02-25T13:32:49.763Z,34.20
2019-02-25T13:35:17.362Z,35.10
2019-02-25T13:37:44.874Z,36.40
2019-02-25T13:40:12.555Z,34.80
2019-02-25T13:42:40.097Z,34.90
2019-02-25T13:45:09.570Z,35.80
2019-02-25T13:47:37.425Z,34.50
2019-02-25T13:50:05.219Z,34.30
2019-02-25T13:52:32.795Z,34.00
2019-02-25T13:55:00.412Z,33.50
2019-02-25T13:57:27.885Z,33.90
2019-02-25T13:59:56.175Z,33.50
2019-02-25T14:02:23.621Z,32.80
2019-02-25T14:04:51.201Z,34.60
2019-02-25T14:07:19.280Z,33.10
2019-02-25T14:09:46.614Z,32.50
2019-02-25T14:12:15.169Z,33.50
2019-02-25T14:14:42.932Z,32.80
2019-02-25T14:17:10.725Z,32.40
2019-02-25T14:19:38.570Z,31.90
2019-02-25T14:25:14.676Z,33.70
2019-02-25T14:27:42.643Z,33.30
2019-02-25T14:30:13.637Z,32.50
2019-02-25T14:32:41.586Z,34.00
2019-02-25T14:35:09.283Z,32.10
2019-02-25T14:37:37.008Z,32.60
2019-02-25T14:40:06.047Z,32.00
2019-02-25T14:42:36.356Z,32.60
2019-02-25T14:45:07.193Z,33.70
2019-02-25T14:47:39.056Z,33.70
2019-02-25T14:50:06.762Z,33.90
2019-02-25T14:52:35.037Z,34.30
2019-02-25T14:55:04.802Z,33.10
2019-02-25T14:57:33.357Z,33.20
2019-02-25T15:00:02.840Z,33.20
2019-02-25T15:02:32.758Z,32.80
2019-02-25T15:05:00.502Z,32.50
2019-02-25T15:07:28.442Z,32.70
2019-02-25T15:09:57.968Z,33.20
2019-02-25T15:12:29.076Z,33.50
2019-02-25T15:14:58.044Z,34.50
2019-02-25T15:17:26.806Z,34.70
2019-02-25T15:19:54.723Z,34.30
2019-02-25T15:22:22.470Z,32.90
2019-02-25T15:24:52.416Z,33.90
2019-02-25T15:27:19.850Z,34.40
2019-02-25T15:29:48.955Z,34.00
2019-02-25T15:32:18.180Z,34.60
2019-02-25T15:34:46.932Z,35.30
2019-02-25T15:37:15.744Z,35.90
2019-02-25T15:39:45.041Z,35.60
2019-02-25T15:42:14.933Z,35.20
2019-02-25T15:44:44.550Z,34.90
2019-02-25T15:47:13.291Z,35.00
2019-02-25T15:49:42.361Z,35.40
2019-02-25T15:52:10.739Z,34.70
2019-02-25T15:54:39.350Z,35.10
2019-02-25T15:57:08.807Z,35.40
2019-02-25T15:59:36.721Z,36.40
2019-02-25T16:02:05.631Z,35.90
2019-02-25T16:04:36.027Z,36.00
2019-02-25T16:07:06.619Z,36.00
2019-02-25T16:09:34.715Z,36.20
2019-02-25T16:12:03.757Z,36.20
2019-02-25T16:14:32.692Z,36.50
2019-02-25T16:17:00.267Z,37.10
2019-02-25T16:19:38.811Z,37.10
2019-02-25T16:21:58.508Z,36.90
2019-02-25T16:24:26.797Z,36.30
2019-02-25T16:26:56.085Z,36.20
2019-02-25T16:29:24.248Z,36.70
2019-02-25T16:31:53.504Z,36.80
2019-02-25T16:34:24.381Z,37.20
2019-02-25T16:36:53.776Z,37.40
2019-02-25T16:39:22.041Z,37.60
2019-02-25T16:41:49.681Z,38.10
2019-02-25T16:44:17.775Z,37.70
2019-02-25T16:46:46.740Z,37.80
2019-02-25T16:49:16.380Z,37.60
2019-02-25T16:51:44.094Z,38.10
2019-02-25T16:54:13.567Z,37.70
2019-02-25T16:56:41.261Z,38.20
2019-02-25T16:59:11.125Z,38.40
2019-02-25T17:01:39.783Z,40.10
2019-02-25T17:04:11.716Z,39.50
2019-02-25T17:06:38.248Z,39.80
2019-02-25T17:09:06.558Z,39.90
2019-02-25T17:11:37.932Z,40.50
2019-02-25T17:14:05.379Z,40.40
2019-02-25T17:16:32.898Z,40.80
2019-02-25T17:19:01.345Z,41.40
2019-02-25T17:21:29.245Z,41.30
2019-02-25T17:23:58.171Z,41.50
2019-02-25T17:26:27.549Z,41.60
2019-02-25T17:28:54.978Z,41.80
2019-02-25T17:31:22.449Z,42.10
2019-02-25T17:33:51.470Z,41.70
2019-02-25T17:36:19.831Z,42.00
2019-02-25T17:38:50.185Z,42.30
2019-02-25T17:41:18.351Z,42.30
2019-02-25T17:43:46.321Z,41.90
2019-02-25T17:46:14.541Z,41.90
2019-02-25T17:48:42.797Z,41.50
2019-02-25T17:51:10.223Z,42.20
2019-02-25T17:53:38.108Z,42.20
2019-02-25T17:56:06.515Z,42.40
2019-02-25T17:58:36.014Z,43.30
2019-02-25T18:01:05.740Z,43.20
2019-02-25T18:03:33.558Z,42.60
2019-02-25T18:06:02.981Z,42.70
2019-02-25T18:08:32.193Z,42.50
2019-02-25T18:11:00.659Z,42.70
2019-02-25T18:13:28.904Z,42.70
2019-02-25T18:15:58.315Z,43.00
2019-02-25T18:18:25.885Z,43.30
2019-02-25T18:20:53.713Z,42.90
2019-02-25T18:23:21.835Z,43.20
2019-02-25T18:25:50.704Z,43.30
2019-02-25T18:28:19.675Z,42.90
2019-02-25T18:30:47.816Z,43.00
2019-02-25T18:33:17.255Z,43.30
2019-02-25T18:35:45.740Z,43.40
2019-02-25T18:38:13.532Z,44.30
2019-02-25T18:40:45.654Z,44.40
2019-02-25T18:43:11.524Z,45.00
2019-02-25T18:45:41.053Z,45.50
2019-02-25T18:48:08.237Z,45.70
2019-02-25T18:50:39.138Z,46.10
2019-02-25T18:53:06.697Z,46.50
2019-02-25T18:55:34.541Z,47.00
2019-02-25T18:58:04.786Z,47.40
2019-02-25T19:00:34.796Z,48.00
2019-02-25T19:03:04.641Z,48.00
2019-02-25T19:05:32.963Z,47.30
2019-02-25T19:08:01.756Z,47.20
2019-02-25T19:10:29.346Z,47.40
2019-02-25T19:12:58.744Z,47.40
2019-02-25T19:15:26.705Z,47.30
2019-02-25T19:17:54.451Z,47.10
2019-02-25T19:20:22.069Z,47.60
2019-02-25T19:22:49.727Z,47.40
2019-02-25T19:25:18.244Z,47.50
2019-02-25T19:27:47.895Z,47.50
2019-02-25T19:30:19.447Z,47.90
2019-02-25T19:32:46.109Z,48.20
2019-02-25T19:35:15.336Z,48.30
2019-02-25T19:37:44.433Z,48.10
2019-02-25T19:40:15.005Z,48.70
2019-02-25T19:42:47.361Z,48.40
2019-02-25T19:45:13.381Z,48.70
2019-02-25T19:47:43.283Z,49.30
2019-02-25T19:50:11.807Z,49.20
2019-02-25T19:52:40.061Z,49.40
2019-02-25T19:55:10.523Z,49.20
2019-02-25T19:57:39.643Z,49.20
2019-02-25T20:00:14.902Z,49.40
2019-02-25T20:02:43.165Z,49.10
2019-02-25T20:05:11.995Z,49.20
2019-02-25T20:07:40.368Z,49.40
2019-02-25T20:10:08.771Z,50.00
2019-02-25T20:12:36.760Z,50.10
2019-02-25T20:15:09.023Z,49.80
2019-02-25T20:17:36.160Z,50.10
2019-02-25T20:20:04.841Z,50.40
2019-02-25T20:22:34.547Z,50.20
2019-02-25T20:25:03.812Z,50.50
2019-02-25T20:27:32.376Z,50.60
2019-02-25T20:30:00.189Z,51.30
2019-02-25T20:32:29.204Z,51.40
2019-02-25T20:34:58.429Z,51.70
2019-02-25T20:37:27.340Z,52.20
2019-02-25T20:39:56.019Z,52.40
2019-02-25T20:42:25.819Z,52.50
2019-02-25T20:44:55.287Z,52.60
2019-02-25T20:47:23.229Z,53.10
2019-02-25T20:49:53.694Z,53.20
2019-02-25T20:52:22.152Z,53.40
2019-02-25T20:54:49.674Z,53.80
2019-02-25T20:57:18.616Z,54.00
2019-02-25T20:59:48.404Z,53.90
2019-02-25T21:02:16.273Z,54.00
2019-02-25T21:04:46.067Z,55.30
2019-02-25T21:07:14.817Z,54.50
2019-02-25T21:09:42.478Z,54.20
2019-02-25T21:12:12.684Z,53.90
2019-02-25T21:14:42.726Z,53.60
2019-02-25T21:17:10.243Z,54.20
2019-02-25T21:19:39.533Z,54.00
2019-02-25T21:22:08.837Z,53.60
2019-02-25T21:24:37.548Z,53.30
2019-02-25T21:27:06.420Z,53.20
2019-02-25T21:29:36.538Z,53.20
2019-02-25T21:32:04.123Z,54.40
2019-02-25T21:34:32.936Z,54.50
2019-02-25T21:37:01.289Z,54.60
2019-02-25T21:39:29.823Z,54.20
2019-02-25T21:41:59.486Z,53.90
2019-02-25T21:44:28.942Z,54.00
2019-02-25T21:46:58.417Z,54.10
2019-02-25T21:49:27.225Z,54.00
2019-02-25T21:51:56.703Z,54.20
2019-02-25T21:54:24.273Z,54.10
2019-02-25T21:56:51.670Z,54.50
2019-02-25T21:59:21.231Z,54.60
2019-02-25T22:01:48.637Z,54.80
2019-02-25T22:04:17.995Z,54.60
2019-02-25T22:06:49.009Z,55.10
2019-02-25T22:09:19.202Z,55.20
2019-02-25T22:11:45.656Z,55.20
2019-02-25T22:14:15.880Z,55.50
2019-02-25T22:16:44.324Z,55.80
2019-02-25T22:19:14.179Z,55.90
2019-02-25T22:21:41.692Z,56.50
2019-02-25T22:24:09.729Z,57.80
2019-02-25T22:26:37.706Z,58.10
2019-02-25T22:29:05.078Z,57.60
2019-02-25T22:31:35.387Z,57.90
2019-02-25T22:34:02.494Z,57.40
2019-02-25T22:36:30.955Z,57.30
2019-02-25T22:38:59.073Z,57.40
2019-02-25T22:41:27.696Z,58.20
2019-02-25T22:43:55.081Z,57.90
2019-02-25T22:46:23.535Z,57.50
2019-02-25T22:48:51.710Z,57.00
2019-02-25T22:51:22.231Z,57.00
2019-02-25T22:53:49.358Z,57.20
2019-02-25T22:56:18.352Z,57.20
2019-02-25T22:58:46.406Z,57.30
2019-02-25T23:01:17.569Z,57.30
2019-02-25T23:03:45.590Z,58.00
2019-02-25T23:06:15.637Z,57.60
2019-02-25T23:08:44.261Z,57.30
2019-02-25T23:11:14.387Z,57.50
2019-02-25T23:13:43.207Z,57.80
2019-02-25T23:16:13.217Z,58.00
2019-02-25T23:18:41.099Z,58.30
2019-02-25T23:21:08.574Z,58.20
2019-02-25T23:23:37.756Z,58.00
2019-02-25T23:26:05.730Z,58.10
2019-02-25T23:28:33.475Z,57.80
2019-02-25T23:31:01.303Z,58.10
2019-02-25T23:33:29.762Z,58.50
2019-02-25T23:35:57.229Z,58.60
2019-02-25T23:38:24.893Z,58.50
2019-02-25T23:40:52.500Z,58.80
2019-02-25T23:43:19.950Z,58.90
2019-02-25T23:45:47.308Z,59.20
2019-02-25T23:48:15.313Z,59.10
2019-02-25T23:50:43.156Z,59.90
2019-02-25T23:53:10.782Z,59.40
2019-02-25T23:55:38.099Z,59.00
2019-02-25T23:58:10.296Z,59.30
